Time;durP1;ratioP1;P1;durP2;ratioP2;P2;SDS_P1;SDS_P2;PMS_P1;PMS_P2;Temp;Humidity;BMP_temperature;BMP_pressure;BME280_temperature;BME280_humidity;BME280_pressure;Samples;Min_cycle;Max_cycle;Signal;HPM_P1;HPM_P2
2022/12/28 00:00:50;;;;;;;8.40;6.60;;;;;;;15.85;37.14;101670.55;101324;1319;69110;-85
2022/12/28 00:03:15;;;;;;;10.70;6.60;;;;;;;15.84;37.18;101673.98;101288;1327;69265;-85
2022/12/28 00:05:41;;;;;;;8.80;6.20;;;;;;;15.83;37.18;101678.16;101057;1322;69308;-85
2022/12/28 00:08:06;;;;;;;8.20;6.10;;;;;;;15.83;37.15;101687.67;101268;1319;69312;-86
2022/12/28 00:10:32;;;;;;;8.30;6.20;;;;;;;15.82;37.09;101694.48;100857;1329;69268;-85
2022/12/28 00:12:57;;;;;;;7.80;5.70;;;;;;;15.81;37.13;101702.64;101309;1319;68998;-86
2022/12/28 00:15:23;;;;;;;8.60;5.70;;;;;;;15.81;37.13;101703.06;101401;1327;69097;-85
2022/12/28 00:17:48;;;;;;;7.60;5.10;;;;;;;15.80;37.15;101698.29;101324;1326;69295;-85
2022/12/28 00:20:14;;;;;;;7.70;5.20;;;;;;;15.79;37.08;101703.58;101367;1319;69214;-86
2022/12/28 00:22:39;;;;;;;6.10;4.50;;;;;;;15.78;37.02;101704.23;101275;1311;69347;-90
2022/12/28 00:25:05;;;;;;;6.40;5.10;;;;;;;15.78;37.01;101709.50;101254;1327;69308;-85
2022/12/28 00:27:31;;;;;;;5.90;4.40;;;;;;;15.77;37.02;101710.02;101338;1327;69337;-86
2022/12/28 00:29:56;;;;;;;8.10;4.30;;;;;;;15.76;37.06;101712.89;101330;1319;69287;-85
2022/12/28 00:32:22;;;;;;;7.10;4.20;;;;;;;15.75;36.98;101725.29;101193;1326;69161;-85
2022/12/28 00:34:47;;;;;;;5.30;4.00;;;;;;;15.74;37.02;101731.85;101218;1319;69244;-86
2022/12/28 00:37:13;;;;;;;5.80;4.10;;;;;;;15.74;36.92;101740.06;101268;1326;69141;-86
2022/12/28 00:39:39;;;;;;;5.10;3.90;;;;;;;15.73;36.96;101737.40;100885;1330;69195;-85
2022/12/28 00:42:05;;;;;;;4.90;4.00;;;;;;;15.73;36.83;101733.66;100975;1326;69276;-85
2022/12/28 00:44:30;;;;;;;6.30;4.00;;;;;;;15.72;36.86;101733.43;101234;1326;69177;-86
2022/12/28 00:46:56;;;;;;;5.40;4.00;;;;;;;15.71;36.77;101736.09;101394;1320;69289;-86
2022/12/28 00:49:21;;;;;;;6.00;4.00;;;;;;;15.71;36.76;101740.09;101205;1319;69221;-85
2022/12/28 00:51:47;;;;;;;5.20;3.60;;;;;;;15.70;36.68;101740.76;101256;1319;69338;-86
2022/12/28 00:54:12;;;;;;;5.50;3.40;;;;;;;15.70;36.74;101747.05;101422;1320;69335;-86
2022/12/28 00:56:39;;;;;;;4.40;3.30;;;;;;;15.70;36.75;101741.25;101370;1304;74367;-86
2022/12/28 00:59:04;;;;;;;3.80;2.90;;;;;;;15.69;36.63;101754.82;100828;1319;82994;-86
2022/12/28 01:01:30;;;;;;;5.50;3.50;;;;;;;15.69;36.51;101756.17;101238;1319;69110;-90
2022/12/28 01:03:56;;;;;;;4.20;3.10;;;;;;;15.68;36.51;101758.34;101270;1324;69307;-86
2022/12/28 01:06:21;;;;;;;4.40;3.00;;;;;;;15.68;36.51;101758.73;101260;1326;69293;-85
2022/12/28 01:08:46;;;;;;;5.10;3.40;;;;;;;15.68;36.44;101761.39;100991;1327;69406;-86
2022/12/28 01:11:20;;;;;;;5.00;3.20;;;;;;;15.67;36.34;101766.04;101360;1327;69195;-86
2022/12/28 01:13:46;;;;;;;3.70;2.70;;;;;;;15.67;36.34;101767.00;101302;1324;69047;-86
2022/12/28 01:16:16;;;;;;;3.40;2.60;;;;;;;15.67;36.29;101768.82;101175;1319;69209;-85
2022/12/28 01:18:42;;;;;;;4.20;3.00;;;;;;;15.66;36.30;101766.14;101389;1323;74063;-86
2022/12/28 01:21:10;;;;;;;3.60;2.80;;;;;;;15.66;36.30;101767.48;100912;1329;69185;-85
2022/12/28 01:23:35;;;;;;;3.30;2.50;;;;;;;15.66;36.23;101767.57;101343;1325;72600;-86
2022/12/28 01:26:01;;;;;;;4.70;2.70;;;;;;;15.65;36.16;101768.41;101299;1327;69243;-86
2022/12/28 01:28:28;;;;;;;3.50;2.70;;;;;;;15.66;36.12;101768.16;101210;1326;69157;-90
2022/12/28 01:30:53;;;;;;;5.40;2.70;;;;;;;15.66;36.14;101767.20;100875;1326;69313;-85
2022/12/28 01:33:19;;;;;;;4.80;2.40;;;;;;;15.66;35.90;101765.27;101221;1318;69326;-86
2022/12/28 01:35:44;;;;;;;4.40;2.00;;;;;;;15.65;35.87;101763.69;101351;1326;69310;-85
2022/12/28 01:38:10;;;;;;;5.00;2.30;;;;;;;15.65;35.91;101762.20;101360;1326;69546;-85
2022/12/28 01:40:35;;;;;;;3.60;2.50;;;;;;;15.64;35.81;101763.64;101300;1330;69683;-86
2022/12/28 01:43:01;;;;;;;3.40;2.30;;;;;;;15.64;35.77;101763.80;101236;1319;69177;-85
2022/12/28 01:45:27;;;;;;;3.70;2.20;;;;;;;15.64;35.82;101765.57;101215;1320;69188;-85
2022/12/28 01:47:52;;;;;;;2.60;2.00;;;;;;;15.64;35.68;101767.09;101322;1324;69289;-85
2022/12/28 01:50:20;;;;;;;3.20;2.40;;;;;;;15.63;35.63;101769.02;100895;1326;73104;-86
2022/12/28 01:52:53;;;;;;;3.70;2.20;;;;;;;15.63;35.62;101770.21;101278;1327;83070;-86
2022/12/28 01:55:21;;;;;;;4.20;2.40;;;;;;;15.64;35.60;101779.27;101317;1317;73207;-86
2022/12/28 01:57:51;;;;;;;3.90;2.30;;;;;;;15.63;35.61;101774.52;100865;1323;69185;-85
2022/12/28 02:00:17;;;;;;;4.20;2.30;;;;;;;15.63;35.39;101777.31;101205;1319;69142;-85
2022/12/28 02:02:52;;;;;;;3.90;2.20;;;;;;;15.63;35.39;101778.36;101268;1319;69212;-85
2022/12/28 02:05:17;;;;;;;2.90;2.10;;;;;;;15.63;35.38;101780.90;101159;1327;83276;-85
2022/12/28 02:07:51;;;;;;;3.80;2.50;;;;;;;15.63;35.35;101785.05;101297;1319;69148;-85
2022/12/28 02:10:16;;;;;;;3.00;2.00;;;;;;;15.63;35.33;101786.17;100919;1327;69060;-90
2022/12/28 02:12:42;;;;;;;2.60;1.80;;;;;;;15.63;35.25;101793.89;100737;1327;69349;-85
2022/12/28 02:15:08;;;;;;;3.40;2.00;;;;;;;15.63;35.24;101798.36;101148;1326;69174;-85
2022/12/28 02:17:33;;;;;;;3.80;2.20;;;;;;;15.63;35.18;101805.32;101157;1326;69272;-85
2022/12/28 02:19:59;;;;;;;3.80;2.00;;;;;;;15.63;35.07;101805.80;101172;1326;69203;-85
2022/12/28 02:22:42;;;;;;;3.10;2.20;;;;;;;15.63;35.09;101807.20;101106;1327;69237;-86
2022/12/28 02:25:20;;;;;;;5.30;2.20;;;;;;;15.62;35.00;101810.10;101117;1326;73306;-85
2022/12/28 02:28:08;;;;;;;3.40;2.00;;;;;;;15.62;34.90;101805.23;101234;1319;83247;-85
2022/12/28 02:30:34;;;;;;;2.90;1.80;;;;;;;15.62;34.92;101801.10;101104;1327;72653;-85
2022/12/28 02:33:12;;;;;;;3.20;2.00;;;;;;;15.62;34.94;101801.11;101155;1319;69171;-85
2022/12/28 02:35:51;;;;;;;4.20;2.20;;;;;;;15.62;34.90;101800.95;100836;1322;69131;-85
2022/12/28 02:38:34;;;;;;;3.60;2.20;;;;;;;15.62;34.71;101805.16;101264;1321;72747;-85
2022/12/28 02:41:08;;;;;;;4.10;2.20;;;;;;;15.62;34.72;101804.15;101073;1328;82110;-85
2022/12/28 02:43:33;;;;;;;4.90;2.20;;;;;;;15.61;34.82;101803.36;100885;1328;72585;-86
2022/12/28 02:52:03;;;;;;;4.60;2.10;;;;;;;15.61;34.61;101822.25;101239;1320;74633;-85
2022/12/28 02:58:07;;;;;;;3.70;2.10;;;;;;;15.61;34.52;101818.45;101085;1323;72649;-85
2022/12/28 03:00:51;;;;;;;4.50;1.90;;;;;;;15.61;34.58;101820.27;100944;1328;69240;-85
2022/12/28 03:03:40;;;;;;;3.60;2.00;;;;;;;15.60;34.47;101824.11;101326;1319;69186;-85
2022/12/28 03:09:35;;;;;;;4.40;1.90;;;;;;;15.60;34.50;101828.41;101248;1320;81264;-85
2022/12/28 03:12:30;;;;;;;4.50;2.10;;;;;;;15.60;34.32;101831.52;101229;1327;72385;-85
2022/12/28 03:14:57;;;;;;;3.60;1.90;;;;;;;15.60;34.40;101838.07;101298;1326;69659;-85
2022/12/28 03:31:15;;;;;;;3.90;2.40;;;;;;;15.61;34.18;101840.37;101249;1326;69138;-86
2022/12/28 03:33:45;;;;;;;4.10;1.90;;;;;;;15.61;34.12;101842.52;101192;1319;73450;-85
2022/12/28 03:36:11;;;;;;;3.80;2.20;;;;;;;15.61;34.06;101847.54;101198;1326;81908;-86
2022/12/28 03:38:49;;;;;;;3.80;2.20;;;;;;;15.61;34.14;101849.05;101329;1319;69216;-86
2022/12/28 03:41:18;;;;;;;4.40;2.10;;;;;;;15.61;34.03;101850.71;101302;1325;69148;-86
2022/12/28 03:43:45;;;;;;;3.70;1.90;;;;;;;15.61;34.03;101852.79;101129;1319;69152;-86
2022/12/28 03:46:22;;;;;;;5.50;2.40;;;;;;;15.62;33.93;101856.45;100781;1327;73702;-86
2022/12/28 03:48:48;;;;;;;2.40;1.90;;;;;;;15.62;33.91;101862.19;101271;1325;82326;-85
2022/12/28 03:51:14;;;;;;;4.30;1.80;;;;;;;15.62;33.90;101862.90;100909;1329;69279;-85
2022/12/28 03:53:41;;;;;;;4.60;2.00;;;;;;;15.62;33.78;101867.60;101090;1327;69157;-85
2022/12/28 03:56:15;;;;;;;3.80;1.90;;;;;;;15.62;33.74;101869.36;101219;1319;69187;-85
2022/12/28 03:58:41;;;;;;;2.50;1.60;;;;;;;15.62;33.72;101867.29;101172;1319;74710;-86
2022/12/28 04:01:06;;;;;;;5.50;2.00;;;;;;;15.62;33.70;101868.70;101384;1320;69238;-86
2022/12/28 04:03:32;;;;;;;3.20;1.90;;;;;;;15.63;33.62;101866.80;101312;1318;69235;-86
2022/12/28 04:05:57;;;;;;;5.10;2.30;;;;;;;15.62;33.64;101865.36;101457;1319;69301;-86
2022/12/28 04:08:23;;;;;;;3.00;2.40;;;;;;;15.63;33.67;101874.75;101690;1326;69177;-86
2022/12/28 04:10:48;;;;;;;5.20;2.70;;;;;;;15.66;33.97;101880.50;101731;1319;80116;-86
2022/12/28 04:13:14;;;;;;;4.50;2.30;;;;;;;15.68;34.41;101883.70;101608;1327;69276;-86
2022/12/28 04:15:39;;;;;;;6.40;2.50;;;;;;;15.70;34.83;101888.03;101437;1318;69293;-86
2022/12/28 04:18:05;;;;;;;6.80;2.80;;;;;;;15.72;35.03;101894.54;101157;1320;69221;-86
2022/12/28 04:20:30;;;;;;;40.80;4.50;;;;;;;15.71;35.09;101899.11;101361;1320;69382;-85
2022/12/28 04:22:56;;;;;;;300.70;21.50;;;;;;;15.68;35.03;101899.96;101474;1326;69161;-85
2022/12/28 04:25:21;;;;;;;149.50;13.50;;;;;;;15.66;34.87;101893.81;101561;1326;69285;-85
2022/12/28 04:27:47;;;;;;;175.30;14.00;;;;;;;15.63;34.73;101893.96;101312;1325;69221;-90
2022/12/28 04:30:12;;;;;;;137.90;11.00;;;;;;;15.62;34.56;101893.45;101326;1319;69338;-85
2022/12/28 04:32:38;;;;;;;112.60;10.90;;;;;;;15.61;34.45;101891.86;100974;1322;72559;-85
2022/12/28 04:35:03;;;;;;;102.80;9.40;;;;;;;15.61;34.25;101895.70;101227;1319;69166;-85
2022/12/28 04:37:29;;;;;;;95.10;10.00;;;;;;;15.61;34.05;101897.13;101315;1326;69195;-86
2022/12/28 04:39:54;;;;;;;75.90;8.50;;;;;;;15.61;33.95;101903.48;101417;1326;69197;-87
2022/12/28 04:42:20;;;;;;;86.70;8.90;;;;;;;15.62;33.99;101905.23;100887;1329;69219;-85
2022/12/28 04:44:45;;;;;;;56.50;8.30;;;;;;;15.63;33.75;101908.48;101293;1320;69101;-85
2022/12/28 04:47:12;;;;;;;71.70;8.30;;;;;;;15.63;33.76;101913.81;101283;1319;69233;-85
2022/12/28 04:49:37;;;;;;;54.10;9.00;;;;;;;15.65;33.68;101912.18;101141;1328;69057;-85
2022/12/28 04:52:03;;;;;;;50.60;8.10;;;;;;;15.66;33.58;101916.14;101337;1326;69177;-86
2022/12/28 04:54:28;;;;;;;48.40;7.80;;;;;;;15.67;33.56;101913.48;100904;1329;69184;-85
2022/12/28 04:56:54;;;;;;;38.40;6.70;;;;;;;15.67;33.51;101909.33;101343;1325;69158;-85
2022/12/28 04:59:19;;;;;;;38.30;6.20;;;;;;;15.68;33.48;101913.85;101169;1333;69286;-85
2022/12/28 05:01:45;;;;;;;32.70;6.00;;;;;;;15.68;33.32;101912.89;101326;1327;69177;-85
2022/12/28 05:04:10;;;;;;;30.00;5.80;;;;;;;15.68;33.40;101919.19;101264;1327;69228;-86
2022/12/28 05:06:36;;;;;;;19.70;4.80;;;;;;;15.68;33.38;101920.61;101135;1323;69231;-90
2022/12/28 05:09:01;;;;;;;23.70;5.60;;;;;;;15.69;33.36;101924.91;100862;1328;69273;-85
2022/12/28 05:11:27;;;;;;;19.10;5.30;;;;;;;15.69;33.28;101926.73;101162;1327;69297;-85
2022/12/28 05:13:53;;;;;;;17.20;4.80;;;;;;;15.69;33.27;101928.02;101269;1325;69192;-85
2022/12/28 05:16:20;;;;;;;23.50;4.80;;;;;;;15.69;33.17;101926.75;100937;1325;69283;-85
2022/12/28 05:18:46;;;;;;;16.70;4.30;;;;;;;15.69;33.10;101927.45;101192;1327;69210;-86
2022/12/28 05:21:17;;;;;;;21.30;4.60;;;;;;;15.69;33.12;101926.67;101128;1326;69269;-85
2022/12/28 05:23:42;;;;;;;;;;;;;;;15.69;33.05;101925.30;101236;1326;82107;-85
2022/12/28 05:26:12;;;;;;;13.50;3.80;;;;;;;15.66;33.17;101930.01;101296;1327;69328;-85
2022/12/28 05:28:38;;;;;;;13.60;3.90;;;;;;;15.66;33.12;101931.52;101153;1326;69162;-85
2022/12/28 05:31:05;;;;;;;18.90;3.40;;;;;;;15.67;33.17;101933.89;101275;1323;69217;-86
2022/12/28 05:33:33;;;;;;;15.30;3.90;;;;;;;15.67;33.08;101933.57;101183;1327;69208;-90
2022/12/28 05:36:06;;;;;;;15.70;3.70;;;;;;;15.67;33.08;101931.43;100767;1329;82358;-85
2022/12/28 05:38:31;;;;;;;9.10;3.20;;;;;;;15.66;33.01;101935.36;101254;1326;72554;-85
2022/12/28 05:41:04;;;;;;;10.20;3.20;;;;;;;15.65;32.95;101935.59;100869;1319;69290;-85
2022/12/28 05:43:30;;;;;;;11.30;3.40;;;;;;;15.65;32.88;101936.24;101292;1320;69566;-85
2022/12/28 05:46:00;;;;;;;10.50;3.70;;;;;;;15.65;32.84;101943.04;101298;1319;69273;-86
2022/12/28 05:48:25;;;;;;;15.00;3.70;;;;;;;15.65;32.94;101944.95;101087;1326;83267;-88
2022/12/28 05:50:51;;;;;;;11.50;3.30;;;;;;;15.65;32.93;101945.12;100866;1327;69226;-85
2022/12/28 05:53:16;;;;;;;15.20;4.20;;;;;;;15.65;32.93;101947.41;101399;1327;69211;-85
2022/12/28 05:55:42;;;;;;;8.80;3.50;;;;;;;15.64;32.95;101949.27;101031;1328;69180;-85
2022/12/28 05:58:08;;;;;;;6.60;3.20;;;;;;;15.64;32.85;101950.78;101347;1323;69331;-86
2022/12/28 06:00:33;;;;;;;8.60;3.20;;;;;;;15.64;32.78;101955.25;101105;1319;72692;-91
2022/12/28 06:02:59;;;;;;;12.30;4.00;;;;;;;15.64;32.77;101966.41;100711;1326;69200;-85
2022/12/28 06:05:26;;;;;;;10.60;5.00;;;;;;;15.64;32.85;101976.23;101227;1326;69215;-85
2022/12/28 06:07:52;;;;;;;13.80;7.50;;;;;;;15.63;32.66;101977.53;100774;1328;69146;-85
2022/12/28 06:10:17;;;;;;;17.00;9.30;;;;;;;15.63;32.70;101981.75;100770;1323;70685;-85
2022/12/28 06:12:43;;;;;;;14.80;8.70;;;;;;;15.63;32.81;101980.25;100974;1326;69057;-86
2022/12/28 06:15:08;;;;;;;15.90;9.40;;;;;;;15.62;32.76;101983.77;100856;1328;69112;-85
2022/12/28 06:17:34;;;;;;;19.20;12.60;;;;;;;15.62;32.77;101983.88;101271;1321;69124;-85
2022/12/28 06:19:59;;;;;;;22.70;13.30;;;;;;;15.62;32.67;101984.17;101257;1320;69085;-85
2022/12/28 06:22:25;;;;;;;20.10;12.80;;;;;;;15.62;32.70;101981.07;101218;1326;69225;-85
2022/12/28 06:24:50;;;;;;;19.30;13.00;;;;;;;15.62;32.70;101983.77;100961;1329;69163;-86
2022/12/28 06:27:16;;;;;;;18.50;11.20;;;;;;;15.62;32.75;101983.47;100845;1322;69221;-86
2022/12/28 06:29:41;;;;;;;24.30;11.90;;;;;;;15.61;32.78;101982.11;101316;1327;69259;-85
2022/12/28 06:32:07;;;;;;;19.20;11.50;;;;;;;15.61;32.84;101984.76;100902;1330;69296;-86
2022/12/28 06:34:32;;;;;;;20.80;12.40;;;;;;;15.61;32.74;101984.69;100823;1327;69222;-86
2022/12/28 06:36:58;;;;;;;20.90;12.60;;;;;;;15.61;32.78;101985.64;101082;1322;72732;-85
2022/12/28 06:39:24;;;;;;;21.80;12.70;;;;;;;15.60;32.70;101991.15;101268;1326;83024;-91
2022/12/28 06:41:50;;;;;;;20.50;10.80;;;;;;;15.60;32.83;101993.16;100988;1320;69280;-86
2022/12/28 06:44:15;;;;;;;18.50;9.90;;;;;;;15.60;32.78;101999.05;101461;1326;69215;-86
2022/12/28 06:46:41;;;;;;;26.50;10.30;;;;;;;15.61;32.92;101999.28;100866;1326;69130;-85
2022/12/28 06:49:06;;;;;;;20.50;9.50;;;;;;;15.61;32.93;102005.49;100958;1325;69112;-86
2022/12/28 06:51:35;;;;;;;16.80;9.90;;;;;;;15.60;32.88;102006.77;101034;1330;69179;-86
2022/12/28 06:54:00;;;;;;;19.90;9.80;;;;;;;15.61;32.95;102010.05;100864;1322;69017;-86
2022/12/28 06:56:27;;;;;;;17.00;8.80;;;;;;;15.61;33.08;102020.09;100896;1322;69245;-86
2022/12/28 06:58:53;;;;;;;19.60;8.80;;;;;;;15.61;33.27;102020.48;101190;1326;69161;-86
2022/12/28 07:01:23;;;;;;;14.20;7.60;;;;;;;15.62;33.50;102023.15;101121;1320;69725;-86
2022/12/28 07:03:53;;;;;;;17.60;7.50;;;;;;;15.63;33.57;102027.13;101204;1321;72454;-86
2022/12/28 07:06:19;;;;;;;13.30;7.70;;;;;;;15.64;33.71;102027.75;100904;1330;69172;-91
2022/12/28 07:08:45;;;;;;;14.50;8.00;;;;;;;15.65;33.76;102029.64;101218;1331;69350;-86
2022/12/28 07:11:12;;;;;;;17.50;8.00;;;;;;;15.65;33.83;102033.54;101111;1327;69236;-86
2022/12/28 07:13:38;;;;;;;18.70;8.20;;;;;;;15.65;33.85;102034.39;101354;1327;69159;-86
2022/12/28 07:16:05;;;;;;;15.90;7.90;;;;;;;15.67;33.90;102031.81;101478;1319;69305;-86
2022/12/28 07:18:31;;;;;;;14.90;8.20;;;;;;;15.67;33.96;102032.05;101143;1321;68999;-86
2022/12/28 07:20:58;;;;;;;20.10;8.00;;;;;;;15.68;34.04;102036.02;100952;1327;69342;-86
2022/12/28 07:23:28;;;;;;;14.90;8.90;;;;;;;15.68;34.11;102033.79;101179;1322;69638;-86
2022/12/28 07:25:56;;;;;;;16.40;9.40;;;;;;;15.68;34.18;102035.69;101404;1327;83506;-86
2022/12/28 07:28:21;;;;;;;13.30;8.10;;;;;;;15.68;34.09;102038.48;101278;1319;72668;-86
2022/12/28 07:30:47;;;;;;;17.30;9.10;;;;;;;15.69;34.20;102043.49;101146;1314;69298;-86
2022/12/28 07:33:12;;;;;;;15.50;8.50;;;;;;;15.68;34.17;102045.02;101109;1327;69421;-91
2022/12/28 07:35:37;;;;;;;16.20;9.40;;;;;;;15.69;34.15;102041.51;101135;1327;69293;-86
2022/12/28 07:38:03;;;;;;;17.30;10.20;;;;;;;15.69;34.15;102046.20;100962;1327;69321;-86
2022/12/28 07:40:28;;;;;;;15.30;9.50;;;;;;;15.70;34.07;102042.36;101314;1326;69250;-85
2022/12/28 07:42:54;;;;;;;15.90;9.00;;;;;;;15.69;34.21;102044.44;100861;1329;69110;-86
2022/12/28 07:45:19;;;;;;;15.50;9.20;;;;;;;15.70;34.10;102044.58;101149;1326;69272;-86
2022/12/28 07:47:45;;;;;;;13.70;9.10;;;;;;;15.71;34.22;102044.25;101209;1317;69232;-86
2022/12/28 07:50:11;;;;;;;16.70;9.80;;;;;;;15.71;34.15;102043.84;101044;1327;69167;-86
2022/12/28 07:52:36;;;;;;;16.00;9.60;;;;;;;15.71;34.13;102041.21;100888;1329;69261;-86
2022/12/28 07:55:02;;;;;;;13.30;8.40;;;;;;;15.72;34.18;102037.54;101031;1329;69198;-86
2022/12/28 07:57:28;;;;;;;16.60;8.80;;;;;;;15.71;34.22;102038.98;100933;1327;69225;-85
2022/12/28 07:59:53;;;;;;;19.40;8.80;;;;;;;15.70;34.25;102037.96;101116;1327;69216;-85
2022/12/28 08:02:19;;;;;;;18.10;9.90;;;;;;;15.69;34.15;102039.42;100978;1328;69223;-86
2022/12/28 08:04:44;;;;;;;19.20;10.80;;;;;;;15.68;34.13;102044.46;101303;1325;69725;-86
2022/12/28 08:07:09;;;;;;;18.10;12.50;;;;;;;15.67;34.04;102042.83;101203;1327;69159;-86
2022/12/28 08:09:35;;;;;;;19.70;11.90;;;;;;;15.67;34.23;102045.85;100827;1327;69290;-86
2022/12/28 08:12:01;;;;;;;20.00;11.80;;;;;;;15.68;34.33;102045.84;100739;1327;69289;-90
2022/12/28 08:14:28;;;;;;;23.60;12.10;;;;;;;15.68;34.26;102047.98;101086;1330;69184;-86
2022/12/28 08:16:54;;;;;;;20.90;11.50;;;;;;;15.67;34.33;102052.71;101410;1327;83055;-86
2022/12/28 08:19:19;;;;;;;26.30;12.50;;;;;;;15.67;34.47;102052.95;100700;1321;69174;-85
2022/12/28 08:21:45;;;;;;;24.10;13.20;;;;;;;15.66;34.47;102056.72;101313;1328;69106;-86
2022/12/28 08:24:16;;;;;;;18.70;12.10;;;;;;;15.65;34.43;102054.34;101305;1329;69195;-86
2022/12/28 08:26:42;;;;;;;;;;;;;;;15.64;34.34;102055.25;102542;1327;73817;-86
2022/12/28 08:29:12;;;;;;;19.30;13.40;;;;;;;15.60;34.34;102055.89;102540;1322;82008;-86
2022/12/28 08:31:39;;;;;;;20.20;13.30;;;;;;;15.60;34.38;102059.23;101917;1328;73558;-86
2022/12/28 08:34:06;;;;;;;23.80;15.90;;;;;;;15.60;34.29;102062.13;100946;1327;69162;-86
2022/12/28 08:36:32;;;;;;;23.20;14.80;;;;;;;15.60;34.22;102056.39;101307;1327;69158;-85
2022/12/28 08:38:57;;;;;;;26.20;18.50;;;;;;;15.59;34.09;102057.67;102602;1324;69141;-91
2022/12/28 08:41:24;;;;;;;32.60;16.90;;;;;;;15.59;34.23;102064.21;102591;1323;68283;-86
2022/12/28 08:43:50;;;;;;;34.20;18.70;;;;;;;15.58;34.14;102060.81;100800;1327;69269;-85
2022/12/28 08:46:18;;;;;;;29.80;17.90;;;;;;;15.58;34.08;102065.19;100844;1325;69249;-86
2022/12/28 08:48:44;;;;;;;22.60;14.50;;;;;;;15.58;34.09;102059.63;101206;1322;69274;-86
2022/12/28 08:51:14;;;;;;;26.40;16.00;;;;;;;15.57;34.09;102059.70;100774;1329;69164;-86
2022/12/28 08:53:39;;;;;;;33.70;18.70;;;;;;;15.57;33.96;102057.19;101285;1322;81927;-86
2022/12/28 08:56:16;;;;;;;28.70;18.80;;;;;;;15.56;33.98;102053.67;100738;1323;69054;-85
2022/12/28 08:58:42;;;;;;;111.00;74.40;;;;;;;15.56;34.06;102053.91;100906;1329;69049;-85
2022/12/28 09:01:13;;;;;;;129.30;84.90;;;;;;;15.57;34.11;102051.17;100772;1319;69243;-85
2022/12/28 09:03:40;;;;;;;72.90;47.50;;;;;;;15.57;34.21;102049.91;101257;1327;75600;-85
2022/12/28 09:06:10;;;;;;;75.30;52.00;;;;;;;15.57;34.28;102051.91;101062;1321;82121;-85
2022/12/28 09:08:35;;;;;;;64.90;43.10;;;;;;;15.57;34.23;102052.87;101100;1326;72366;-85
2022/12/28 09:11:02;;;;;;;55.00;37.40;;;;;;;15.56;34.20;102054.24;101297;1326;69227;-85
2022/12/28 09:13:27;;;;;;;55.20;37.60;;;;;;;15.55;34.12;102051.54;101455;1326;69065;-86
2022/12/28 09:16:01;;;;;;;57.30;37.80;;;;;;;15.55;34.05;102048.77;100938;1327;69230;-86
2022/12/28 09:18:26;;;;;;;51.70;32.20;;;;;;;15.54;34.05;102049.59;101269;1324;83126;-86
2022/12/28 09:20:52;;;;;;;76.10;51.70;;;;;;;15.53;33.95;102047.14;100874;1327;70661;-91
2022/12/28 09:23:17;;;;;;;59.70;38.00;;;;;;;15.54;33.97;102046.55;101031;1319;69227;-86
2022/12/28 09:25:43;;;;;;;49.70;34.80;;;;;;;15.54;33.84;102042.33;101101;1330;69225;-85
2022/12/28 09:28:08;;;;;;;141.90;102.10;;;;;;;15.54;33.93;102045.12;101120;1319;69274;-86
2022/12/28 09:30:34;;;;;;;114.20;83.00;;;;;;;15.54;34.01;102039.69;100961;1333;69164;-86
2022/12/28 09:35:44;;;;;;;70.90;48.10;;;;;;;15.56;34.15;102035.11;101407;1327;69080;-91
2022/12/28 09:38:09;;;;;;;65.90;42.90;;;;;;;15.57;34.12;102035.57;100951;1328;69415;-86
2022/12/28 09:40:35;;;;;;;95.60;68.00;;;;;;;15.56;34.13;102037.17;101111;1318;69217;-85
2022/12/28 09:43:01;;;;;;;262.90;195.00;;;;;;;15.57;34.17;102034.61;101178;1330;69684;-86
2022/12/28 09:45:26;;;;;;;175.20;122.90;;;;;;;15.61;34.90;102033.80;101163;1326;69267;-86
2022/12/28 09:47:54;;;;;;;138.80;102.00;;;;;;;15.66;35.23;102032.48;100976;1330;69325;-86
2022/12/28 09:50:27;;;;;;;115.10;77.40;;;;;;;15.68;35.16;102030.77;101142;1327;82958;-86
2022/12/28 09:53:26;;;;;;;91.60;66.50;;;;;;;15.67;35.15;102025.50;101149;1328;72754;-86
2022/12/28 09:55:51;;;;;;;91.30;62.10;;;;;;;15.67;35.07;102016.44;101297;1323;69252;-86
2022/12/28 09:58:17;;;;;;;74.30;51.80;;;;;;;15.67;34.87;102021.21;101508;1326;69180;-86
2022/12/28 10:00:47;;;;;;;67.60;45.70;;;;;;;15.68;34.75;102018.48;100847;1329;69173;-86
2022/12/28 10:03:19;;;;;;;48.50;29.70;;;;;;;15.70;34.69;102014.12;101216;1326;82327;-86
2022/12/28 10:05:45;;;;;;;24.70;16.30;;;;;;;15.72;34.41;102007.52;101363;1327;72518;-87
2022/12/28 10:08:12;;;;;;;35.30;15.40;;;;;;;15.73;34.11;102002.33;101324;1323;69285;-86
2022/12/28 10:10:38;;;;;;;19.70;8.20;;;;;;;15.73;33.79;101997.16;101152;1329;69149;-86
2022/12/28 10:13:17;;;;;;;15.00;6.30;;;;;;;15.71;33.54;101992.08;100877;1330;69209;-85
2022/12/28 10:15:43;;;;;;;13.90;5.10;;;;;;;15.68;33.15;101987.84;101458;1327;82236;-86
2022/12/28 10:18:11;;;;;;;12.30;4.90;;;;;;;15.67;32.89;101983.09;100991;1330;69940;-85
2022/12/28 10:20:36;;;;;;;16.60;10.00;;;;;;;15.69;32.75;101977.94;101045;1329;69229;-91
2022/12/28 10:23:02;;;;;;;19.20;11.80;;;;;;;15.71;32.80;101975.81;100869;1327;69230;-86
2022/12/28 10:25:27;;;;;;;18.30;9.90;;;;;;;15.74;32.88;101972.08;100944;1330;69179;-86
2022/12/28 10:27:53;;;;;;;17.20;11.40;;;;;;;15.76;32.80;101968.52;101000;1328;69350;-85
2022/12/28 10:30:22;;;;;;;18.90;11.00;;;;;;;15.78;32.92;101966.22;101215;1333;69168;-85
2022/12/28 10:32:50;;;;;;;20.80;12.30;;;;;;;15.80;32.91;101959.23;101418;1320;69193;-86
2022/12/28 10:35:22;;;;;;;19.90;11.10;;;;;;;15.82;32.95;101959.10;101302;1327;73220;-85
2022/12/28 10:37:47;;;;;;;23.60;13.80;;;;;;;15.83;32.96;101962.19;101266;1326;82236;-85
2022/12/28 10:40:33;;;;;;;21.70;14.30;;;;;;;15.85;33.02;101961.52;101354;1326;69312;-85
2022/12/28 10:42:59;;;;;;;39.60;26.80;;;;;;;15.87;33.00;101962.22;101161;1327;69307;-86
2022/12/28 10:45:40;;;;;;;35.90;24.50;;;;;;;15.89;32.99;101959.05;101018;1326;69235;-85
2022/12/28 10:48:17;;;;;;;34.10;26.00;;;;;;;15.90;32.99;101951.20;101226;1328;74701;-86
2022/12/28 10:50:53;;;;;;;32.60;25.10;;;;;;;15.92;32.96;101952.18;101274;1333;82108;-86
2022/12/28 10:53:19;;;;;;;39.30;26.50;;;;;;;15.93;32.84;101944.57;101195;1327;72465;-87
2022/12/28 10:55:44;;;;;;;39.80;26.10;;;;;;;15.95;32.92;101947.48;101234;1333;69143;-85
2022/12/28 10:58:20;;;;;;;33.70;24.90;;;;;;;15.96;32.84;101950.73;101150;1328;69319;-85
2022/12/28 11:00:56;;;;;;;29.20;19.30;;;;;;;15.97;32.83;101954.77;100865;1327;74693;-85
2022/12/28 11:03:30;;;;;;;27.00;21.00;;;;;;;15.99;32.87;101952.40;100907;1327;82142;-85
2022/12/28 11:06:16;;;;;;;27.20;20.20;;;;;;;16.01;32.81;101950.45;100856;1323;72550;-86
2022/12/28 11:08:43;;;;;;;27.70;19.80;;;;;;;16.02;32.77;101945.28;101241;1328;69185;-86
2022/12/28 11:11:20;;;;;;;28.20;19.00;;;;;;;16.04;32.90;101937.27;101181;1326;69209;-84
2022/12/28 11:13:49;;;;;;;25.10;18.10;;;;;;;16.04;32.72;101932.06;101358;1326;74443;-84
2022/12/28 11:16:15;;;;;;;24.10;15.80;;;;;;;16.05;32.73;101932.46;101345;1331;81438;-86
2022/12/28 11:18:40;;;;;;;26.60;16.80;;;;;;;16.05;32.70;101928.05;101293;1327;69238;-84
2022/12/28 11:21:12;;;;;;;25.00;16.50;;;;;;;16.07;32.68;101930.80;101103;1328;69239;-85
2022/12/28 11:23:38;;;;;;;38.40;27.20;;;;;;;16.07;32.59;101933.20;100874;1322;69207;-85
2022/12/28 11:26:03;;;;;;;39.70;24.70;;;;;;;16.07;32.54;101928.95;101292;1328;69287;-84
2022/12/28 11:28:29;;;;;;;54.60;37.10;;;;;;;16.08;32.67;101926.46;100941;1326;69191;-85
2022/12/28 11:30:54;;;;;;;49.30;36.90;;;;;;;16.09;32.54;101917.11;101001;1330;69255;-85
2022/12/28 11:33:38;;;;;;;58.10;40.60;;;;;;;16.10;32.47;101916.20;101024;1322;69205;-85
2022/12/28 11:36:04;;;;;;;53.60;39.10;;;;;;;16.11;32.52;101918.02;101301;1326;74676;-85
2022/12/28 11:38:36;;;;;;;53.70;39.40;;;;;;;16.11;32.49;101913.85;100920;1330;69226;-85
2022/12/28 11:41:02;;;;;;;52.60;37.80;;;;;;;16.12;32.49;101908.48;101286;1319;72705;-85